sensor_id;sensor_type;location;lat;lon;timestamp;pressure;altitude;pressure_sealevel;temperature;humidity
45872;BME280;32333;55.844;-3.210;2023-04-12T00:01:52;95842.49;;;-0.05;100.00
45872;BME280;32333;55.844;-3.210;2023-04-12T00:04:19;95839.81;;;-0.73;100.00
45872;BME280;32333;55.844;-3.210;2023-04-12T00:06:47;95852.60;;;-0.84;100.00
45872;BME280;32333;55.844;-3.210;2023-04-12T00:09:14;95853.56;;;-0.87;100.00
45872;BME280;32333;55.844;-3.210;2023-04-12T00:11:42;95857.38;;;-0.60;100.00
45872;BME280;32333;55.844;-3.210;2023-04-12T00:14:36;95865.11;;;-0.45;100.00
45872;BME280;32333;55.844;-3.210;2023-04-12T00:17:03;95864.88;;;-1.03;100.00
45872;BME280;32333;55.844;-3.210;2023-04-12T00:19:31;95867.27;;;-0.92;100.00
45872;BME280;32333;55.844;-3.210;2023-04-12T00:21:59;95869.56;;;-0.39;100.00
45872;BME280;32333;55.844;-3.210;2023-04-12T00:24:27;95892.28;;;-0.84;100.00
45872;BME280;32333;55.844;-3.210;2023-04-12T00:26:55;95889.21;;;-0.99;100.00
45872;BME280;32333;55.844;-3.210;2023-04-12T00:29:22;95885.03;;;-0.93;100.00
45872;BME280;32333;55.844;-3.210;2023-04-12T00:31:50;95899.15;;;-0.77;100.00
45872;BME280;32333;55.844;-3.210;2023-04-12T00:34:17;95899.49;;;-0.62;100.00
45872;BME280;32333;55.844;-3.210;2023-04-12T00:36:45;95896.71;;;-0.91;100.00
45872;BME280;32333;55.844;-3.210;2023-04-12T00:39:14;95916.28;;;-0.75;100.00
45872;BME280;32333;55.844;-3.210;2023-04-12T00:41:41;95914.06;;;-0.76;100.00
45872;BME280;32333;55.844;-3.210;2023-04-12T00:44:36;95925.64;;;-0.51;100.00
45872;BME280;32333;55.844;-3.210;2023-04-12T00:47:04;95925.34;;;-0.07;100.00
45872;BME280;32333;55.844;-3.210;2023-04-12T00:49:32;95931.32;;;-1.09;100.00
45872;BME280;32333;55.844;-3.210;2023-04-12T00:52:03;95939.43;;;-0.51;100.00
45872;BME280;32333;55.844;-3.210;2023-04-12T00:54:32;95938.31;;;-1.23;100.00
45872;BME280;32333;55.844;-3.210;2023-04-12T00:57:01;95950.58;;;-0.91;100.00
45872;BME280;32333;55.844;-3.210;2023-04-12T00:59:29;95961.04;;;-0.75;100.00
45872;BME280;32333;55.844;-3.210;2023-04-12T01:01:57;95964.01;;;-1.06;100.00
45872;BME280;32333;55.844;-3.210;2023-04-12T01:04:25;95968.02;;;-1.16;100.00
45872;BME280;32333;55.844;-3.210;2023-04-12T01:07:07;95965.28;;;-0.87;100.00
45872;BME280;32333;55.844;-3.210;2023-04-12T01:09:44;95972.59;;;-1.15;100.00
45872;BME280;32333;55.844;-3.210;2023-04-12T01:14:42;95970.75;;;-1.12;100.00
45872;BME280;32333;55.844;-3.210;2023-04-12T01:17:17;95973.41;;;-1.54;100.00
45872;BME280;32333;55.844;-3.210;2023-04-12T01:19:53;95979.31;;;-1.12;100.00
45872;BME280;32333;55.844;-3.210;2023-04-12T01:22:34;95983.60;;;-0.93;100.00
45872;BME280;32333;55.844;-3.210;2023-04-12T01:25:22;95980.01;;;-0.63;100.00
45872;BME280;32333;55.844;-3.210;2023-04-12T01:27:53;95981.54;;;-1.10;100.00
45872;BME280;32333;55.844;-3.210;2023-04-12T01:30:27;95981.17;;;-0.84;100.00
45872;BME280;32333;55.844;-3.210;2023-04-12T01:32:57;95990.98;;;-0.81;100.00
45872;BME280;32333;55.844;-3.210;2023-04-12T01:35:27;95989.50;;;-0.53;100.00
45872;BME280;32333;55.844;-3.210;2023-04-12T01:37:56;96002.05;;;-0.71;100.00
45872;BME280;32333;55.844;-3.210;2023-04-12T01:40:26;95996.08;;;-0.70;100.00
45872;BME280;32333;55.844;-3.210;2023-04-12T01:44:36;96006.64;;;-0.06;100.00
45872;BME280;32333;55.844;-3.210;2023-04-12T01:47:04;96003.72;;;-0.91;100.00
45872;BME280;32333;55.844;-3.210;2023-04-12T01:49:37;96016.73;;;-1.31;100.00
45872;BME280;32333;55.844;-3.210;2023-04-12T01:52:12;96020.86;;;-1.02;100.00
45872;BME280;32333;55.844;-3.210;2023-04-12T01:54:49;96029.13;;;-0.58;100.00
45872;BME280;32333;55.844;-3.210;2023-04-12T01:57:18;96040.76;;;-0.79;100.00
45872;BME280;32333;55.844;-3.210;2023-04-12T01:59:47;96033.65;;;-0.61;100.00
45872;BME280;32333;55.844;-3.210;2023-04-12T02:02:16;96031.50;;;-0.66;100.00
45872;BME280;32333;55.844;-3.210;2023-04-12T02:04:46;96039.31;;;-0.06;100.00
45872;BME280;32333;55.844;-3.210;2023-04-12T02:07:14;96031.07;;;-0.80;100.00
45872;BME280;32333;55.844;-3.210;2023-04-12T02:09:44;96034.70;;;-0.70;100.00
45872;BME280;32333;55.844;-3.210;2023-04-12T02:14:36;96044.00;;;-0.61;100.00
45872;BME280;32333;55.844;-3.210;2023-04-12T02:17:04;96050.64;;;-0.51;100.00
45872;BME280;32333;55.844;-3.210;2023-04-12T02:19:31;96042.54;;;-0.27;100.00
45872;BME280;32333;55.844;-3.210;2023-04-12T02:22:00;96052.57;;;-0.57;100.00
45872;BME280;32333;55.844;-3.210;2023-04-12T02:24:27;96058.74;;;-0.57;100.00
45872;BME280;32333;55.844;-3.210;2023-04-12T02:26:57;96056.98;;;-0.36;100.00
45872;BME280;32333;55.844;-3.210;2023-04-12T02:29:26;96066.82;;;-0.16;100.00
45872;BME280;32333;55.844;-3.210;2023-04-12T02:31:53;96072.92;;;-0.38;100.00
45872;BME280;32333;55.844;-3.210;2023-04-12T02:34:21;96080.86;;;-0.68;100.00
45872;BME280;32333;55.844;-3.210;2023-04-12T02:36:49;96079.58;;;-0.03;100.00
45872;BME280;32333;55.844;-3.210;2023-04-12T02:39:17;96086.61;;;-0.68;100.00
45872;BME280;32333;55.844;-3.210;2023-04-12T02:41:44;96068.50;;;-0.47;100.00
45872;BME280;32333;55.844;-3.210;2023-04-12T02:44:36;96090.89;;;-0.11;100.00
45872;BME280;32333;55.844;-3.210;2023-04-12T02:47:03;96089.53;;;-0.37;100.00
45872;BME280;32333;55.844;-3.210;2023-04-12T02:49:31;96081.60;;;-0.60;100.00
45872;BME280;32333;55.844;-3.210;2023-04-12T02:51:58;96089.25;;;-0.41;100.00
45872;BME280;32333;55.844;-3.210;2023-04-12T02:54:26;96089.80;;;0.06;100.00
45872;BME280;32333;55.844;-3.210;2023-04-12T02:56:54;96096.99;;;-0.20;100.00
45872;BME280;32333;55.844;-3.210;2023-04-12T02:59:21;96101.36;;;-0.52;100.00
45872;BME280;32333;55.844;-3.210;2023-04-12T03:01:50;96099.55;;;-0.42;100.00
45872;BME280;32333;55.844;-3.210;2023-04-12T03:04:18;96115.77;;;-0.40;100.00
45872;BME280;32333;55.844;-3.210;2023-04-12T03:06:45;96105.03;;;-0.01;100.00
45872;BME280;32333;55.844;-3.210;2023-04-12T03:09:13;96108.87;;;-0.15;100.00
45872;BME280;32333;55.844;-3.210;2023-04-12T03:11:41;96109.88;;;-0.16;100.00
45872;BME280;32333;55.844;-3.210;2023-04-12T03:14:36;96108.30;;;-0.03;100.00
45872;BME280;32333;55.844;-3.210;2023-04-12T03:17:03;96112.51;;;-0.62;100.00
45872;BME280;32333;55.844;-3.210;2023-04-12T03:19:31;96107.68;;;-0.42;100.00
45872;BME280;32333;55.844;-3.210;2023-04-12T03:22:00;96118.92;;;-0.33;100.00
45872;BME280;32333;55.844;-3.210;2023-04-12T03:24:28;96121.78;;;-0.30;100.00
45872;BME280;32333;55.844;-3.210;2023-04-12T03:26:56;96122.04;;;-0.35;100.00
45872;BME280;32333;55.844;-3.210;2023-04-12T03:29:24;96123.45;;;-0.76;100.00
45872;BME280;32333;55.844;-3.210;2023-04-12T03:31:52;96123.21;;;-0.26;100.00
45872;BME280;32333;55.844;-3.210;2023-04-12T03:34:19;96131.28;;;-0.14;100.00
45872;BME280;32333;55.844;-3.210;2023-04-12T03:36:47;96128.24;;;-0.17;100.00
45872;BME280;32333;55.844;-3.210;2023-04-12T03:39:15;96137.60;;;-0.28;100.00
45872;BME280;32333;55.844;-3.210;2023-04-12T03:41:42;96127.59;;;-0.63;100.00
45872;BME280;32333;55.844;-3.210;2023-04-12T03:44:36;96132.93;;;0.08;100.00
45872;BME280;32333;55.844;-3.210;2023-04-12T03:47:04;96119.68;;;-0.24;100.00
45872;BME280;32333;55.844;-3.210;2023-04-12T03:49:31;96123.85;;;-0.45;100.00
45872;BME280;32333;55.844;-3.210;2023-04-12T03:52:00;96116.13;;;-0.65;100.00
45872;BME280;32333;55.844;-3.210;2023-04-12T03:54:27;96125.96;;;-0.34;100.00
45872;BME280;32333;55.844;-3.210;2023-04-12T03:56:55;96117.17;;;-0.48;100.00
45872;BME280;32333;55.844;-3.210;2023-04-12T03:59:23;96121.13;;;-0.66;100.00
45872;BME280;32333;55.844;-3.210;2023-04-12T04:01:51;96133.95;;;-0.04;100.00
45872;BME280;32333;55.844;-3.210;2023-04-12T04:04:18;96135.61;;;-0.18;100.00
45872;BME280;32333;55.844;-3.210;2023-04-12T04:06:46;96136.30;;;-0.49;100.00
45872;BME280;32333;55.844;-3.210;2023-04-12T04:09:15;96135.15;;;-0.49;100.00
45872;BME280;32333;55.844;-3.210;2023-04-12T04:11:42;96142.34;;;0.11;100.00
45872;BME280;32333;55.844;-3.210;2023-04-12T04:14:36;96147.05;;;-0.25;100.00
45872;BME280;32333;55.844;-3.210;2023-04-12T04:17:03;96147.76;;;-0.80;100.00
45872;BME280;32333;55.844;-3.210;2023-04-12T04:19:31;96154.50;;;-0.68;100.00
45872;BME280;32333;55.844;-3.210;2023-04-12T04:22:00;96154.86;;;-0.50;100.00
45872;BME280;32333;55.844;-3.210;2023-04-12T04:24:27;96161.62;;;0.10;100.00
45872;BME280;32333;55.844;-3.210;2023-04-12T04:26:55;96160.93;;;-0.86;100.00
45872;BME280;32333;55.844;-3.210;2023-04-12T04:29:22;96153.69;;;-0.25;100.00
45872;BME280;32333;55.844;-3.210;2023-04-12T04:31:50;96158.58;;;-0.43;100.00
45872;BME280;32333;55.844;-3.210;2023-04-12T04:34:18;96159.68;;;-0.63;100.00
45872;BME280;32333;55.844;-3.210;2023-04-12T04:36:45;96170.59;;;-0.48;100.00
45872;BME280;32333;55.844;-3.210;2023-04-12T04:39:14;96163.53;;;-0.70;100.00
45872;BME280;32333;55.844;-3.210;2023-04-12T04:41:41;96166.89;;;-0.41;100.00
45872;BME280;32333;55.844;-3.210;2023-04-12T04:44:36;96164.54;;;-0.13;100.00
45872;BME280;32333;55.844;-3.210;2023-04-12T04:47:03;96166.06;;;-0.56;100.00
45872;BME280;32333;55.844;-3.210;2023-04-12T04:49:31;96171.55;;;-0.35;100.00
45872;BME280;32333;55.844;-3.210;2023-04-12T04:52:00;96173.41;;;-0.68;100.00
45872;BME280;32333;55.844;-3.210;2023-04-12T04:54:27;96172.93;;;-0.28;100.00
45872;BME280;32333;55.844;-3.210;2023-04-12T04:56:56;96185.63;;;-0.44;100.00
45872;BME280;32333;55.844;-3.210;2023-04-12T04:59:25;96183.47;;;-0.96;100.00
45872;BME280;32333;55.844;-3.210;2023-04-12T05:01:52;96180.69;;;-0.35;100.00
45872;BME280;32333;55.844;-3.210;2023-04-12T05:04:20;96181.50;;;-0.14;100.00
45872;BME280;32333;55.844;-3.210;2023-04-12T05:06:47;96186.49;;;-0.03;100.00
45872;BME280;32333;55.844;-3.210;2023-04-12T05:09:15;96184.96;;;-0.48;100.00
45872;BME280;32333;55.844;-3.210;2023-04-12T05:11:43;96186.88;;;-0.57;100.00
45872;BME280;32333;55.844;-3.210;2023-04-12T05:14:35;96187.74;;;-0.48;100.00
45872;BME280;32333;55.844;-3.210;2023-04-12T05:17:03;96190.85;;;-1.22;100.00
45872;BME280;32333;55.844;-3.210;2023-04-12T05:19:31;96189.34;;;-1.12;100.00
45872;BME280;32333;55.844;-3.210;2023-04-12T05:21:59;96184.37;;;-0.59;100.00
45872;BME280;32333;55.844;-3.210;2023-04-12T05:24:27;96190.69;;;-0.67;100.00
45872;BME280;32333;55.844;-3.210;2023-04-12T05:26:55;96194.42;;;-0.66;100.00
45872;BME280;32333;55.844;-3.210;2023-04-12T05:29:22;96193.16;;;-0.74;100.00
45872;BME280;32333;55.844;-3.210;2023-04-12T05:31:50;96191.60;;;-0.59;100.00
45872;BME280;32333;55.844;-3.210;2023-04-12T05:34:19;96191.91;;;-0.87;100.00
45872;BME280;32333;55.844;-3.210;2023-04-12T05:36:47;96192.98;;;-1.20;100.00
45872;BME280;32333;55.844;-3.210;2023-04-12T05:39:15;96191.15;;;-0.54;100.00
45872;BME280;32333;55.844;-3.210;2023-04-12T05:41:43;96194.14;;;-0.27;100.00
45872;BME280;32333;55.844;-3.210;2023-04-12T05:44:37;96192.90;;;-0.23;100.00
45872;BME280;32333;55.844;-3.210;2023-04-12T05:47:05;96196.09;;;-0.34;100.00
45872;BME280;32333;55.844;-3.210;2023-04-12T05:49:32;96197.47;;;-0.42;100.00
45872;BME280;32333;55.844;-3.210;2023-04-12T05:52:01;96214.56;;;-0.27;100.00
45872;BME280;32333;55.844;-3.210;2023-04-12T05:54:29;96217.36;;;-0.49;100.00
45872;BME280;32333;55.844;-3.210;2023-04-12T05:56:57;96228.27;;;-0.52;100.00
45872;BME280;32333;55.844;-3.210;2023-04-12T05:59:25;96232.02;;;0.02;100.00
45872;BME280;32333;55.844;-3.210;2023-04-12T06:01:54;96240.32;;;-0.76;100.00
45872;BME280;32333;55.844;-3.210;2023-04-12T06:04:22;96230.80;;;-0.69;100.00
45872;BME280;32333;55.844;-3.210;2023-04-12T06:06:50;96237.93;;;-0.31;100.00
45872;BME280;32333;55.844;-3.210;2023-04-12T06:09:18;96239.14;;;-0.59;100.00
45872;BME280;32333;55.844;-3.210;2023-04-12T06:11:45;96245.00;;;-0.43;100.00
45872;BME280;32333;55.844;-3.210;2023-04-12T06:14:36;96236.83;;;0.06;100.00
45872;BME280;32333;55.844;-3.210;2023-04-12T06:17:04;96236.09;;;-0.20;100.00
45872;BME280;32333;55.844;-3.210;2023-04-12T06:19:31;96232.14;;;-0.31;100.00
45872;BME280;32333;55.844;-3.210;2023-04-12T06:22:00;96236.84;;;-0.27;100.00
45872;BME280;32333;55.844;-3.210;2023-04-12T06:24:28;96239.85;;;0.18;100.00
45872;BME280;32333;55.844;-3.210;2023-04-12T06:26:55;96239.05;;;-0.17;100.00
45872;BME280;32333;55.844;-3.210;2023-04-12T06:29:23;96240.59;;;0.02;100.00
45872;BME280;32333;55.844;-3.210;2023-04-12T06:31:50;96249.14;;;0.14;100.00
45872;BME280;32333;55.844;-3.210;2023-04-12T06:34:18;96254.59;;;0.01;100.00
45872;BME280;32333;55.844;-3.210;2023-04-12T06:36:45;96254.51;;;1.23;100.00
45872;BME280;32333;55.844;-3.210;2023-04-12T06:39:14;96253.84;;;1.21;100.00
45872;BME280;32333;55.844;-3.210;2023-04-12T06:41:42;96256.23;;;-0.10;100.00
45872;BME280;32333;55.844;-3.210;2023-04-12T06:44:35;96261.20;;;0.86;100.00
45872;BME280;32333;55.844;-3.210;2023-04-12T06:47:03;96260.06;;;0.56;100.00
45872;BME280;32333;55.844;-3.210;2023-04-12T06:49:31;96261.12;;;0.85;100.00
45872;BME280;32333;55.844;-3.210;2023-04-12T06:52:00;96267.08;;;0.62;100.00
45872;BME280;32333;55.844;-3.210;2023-04-12T06:54:27;96271.59;;;0.37;100.00
45872;BME280;32333;55.844;-3.210;2023-04-12T06:56:55;96271.31;;;0.69;100.00
45872;BME280;32333;55.844;-3.210;2023-04-12T06:59:23;96269.05;;;1.03;100.00
45872;BME280;32333;55.844;-3.210;2023-04-12T07:01:51;96275.39;;;0.79;100.00
45872;BME280;32333;55.844;-3.210;2023-04-12T07:04:19;96269.91;;;1.12;100.00
45872;BME280;32333;55.844;-3.210;2023-04-12T07:06:46;96273.96;;;0.68;100.00
45872;BME280;32333;55.844;-3.210;2023-04-12T07:09:14;96267.61;;;1.54;100.00
45872;BME280;32333;55.844;-3.210;2023-04-12T07:11:41;96270.37;;;1.38;100.00
45872;BME280;32333;55.844;-3.210;2023-04-12T07:14:35;96270.46;;;1.91;100.00
45872;BME280;32333;55.844;-3.210;2023-04-12T07:17:03;96263.43;;;1.35;100.00
45872;BME280;32333;55.844;-3.210;2023-04-12T07:19:31;96272.67;;;2.12;100.00
45872;BME280;32333;55.844;-3.210;2023-04-12T07:22:04;96258.90;;;1.96;100.00
45872;BME280;32333;55.844;-3.210;2023-04-12T07:24:32;96252.00;;;2.20;100.00
45872;BME280;32333;55.844;-3.210;2023-04-12T07:26:59;96250.60;;;2.21;100.00
45872;BME280;32333;55.844;-3.210;2023-04-12T07:29:26;96257.32;;;1.77;100.00
45872;BME280;32333;55.844;-3.210;2023-04-12T07:31:54;96252.46;;;1.60;100.00
45872;BME280;32333;55.844;-3.210;2023-04-12T07:34:23;96256.43;;;1.81;100.00
45872;BME280;32333;55.844;-3.210;2023-04-12T07:36:50;96250.74;;;2.14;100.00
45872;BME280;32333;55.844;-3.210;2023-04-12T07:39:18;96261.72;;;1.96;100.00
45872;BME280;32333;55.844;-3.210;2023-04-12T07:41:45;96254.42;;;1.58;100.00
45872;BME280;32333;55.844;-3.210;2023-04-12T07:44:35;96252.60;;;1.80;100.00
45872;BME280;32333;55.844;-3.210;2023-04-12T07:47:02;96253.71;;;2.14;100.00
45872;BME280;32333;55.844;-3.210;2023-04-12T07:49:30;96267.01;;;2.60;100.00
45872;BME280;32333;55.844;-3.210;2023-04-12T07:51:57;96265.12;;;2.82;100.00
45872;BME280;32333;55.844;-3.210;2023-04-12T07:54:26;96267.46;;;2.96;100.00
45872;BME280;32333;55.844;-3.210;2023-04-12T07:56:57;96261.61;;;2.82;100.00
45872;BME280;32333;55.844;-3.210;2023-04-12T07:59:25;96268.62;;;2.93;100.00
45872;BME280;32333;55.844;-3.210;2023-04-12T08:01:53;96252.96;;;2.97;100.00
45872;BME280;32333;55.844;-3.210;2023-04-12T08:04:20;96260.03;;;3.26;100.00
45872;BME280;32333;55.844;-3.210;2023-04-12T08:06:49;96265.61;;;3.47;100.00
45872;BME280;32333;55.844;-3.210;2023-04-12T08:09:16;96275.03;;;3.04;100.00
45872;BME280;32333;55.844;-3.210;2023-04-12T08:11:44;96270.12;;;2.08;100.00
45872;BME280;32333;55.844;-3.210;2023-04-12T08:14:35;96288.92;;;1.62;100.00
45872;BME280;32333;55.844;-3.210;2023-04-12T08:17:03;96284.90;;;0.93;100.00
45872;BME280;32333;55.844;-3.210;2023-04-12T08:19:30;96293.23;;;0.66;100.00
45872;BME280;32333;55.844;-3.210;2023-04-12T08:21:59;96298.33;;;1.38;100.00
45872;BME280;32333;55.844;-3.210;2023-04-12T08:24:26;96294.53;;;1.27;100.00
45872;BME280;32333;55.844;-3.210;2023-04-12T08:26:54;96297.94;;;0.78;100.00
45872;BME280;32333;55.844;-3.210;2023-04-12T08:29:21;96295.74;;;1.21;100.00
45872;BME280;32333;55.844;-3.210;2023-04-12T08:31:50;96298.36;;;1.76;100.00
45872;BME280;32333;55.844;-3.210;2023-04-12T08:34:17;96296.77;;;2.40;100.00
45872;BME280;32333;55.844;-3.210;2023-04-12T08:36:46;96294.02;;;1.59;100.00
45872;BME280;32333;55.844;-3.210;2023-04-12T08:39:13;96288.81;;;1.70;100.00
45872;BME280;32333;55.844;-3.210;2023-04-12T08:41:41;96287.54;;;2.16;100.00
45872;BME280;32333;55.844;-3.210;2023-04-12T08:44:37;96287.99;;;2.15;100.00
45872;BME280;32333;55.844;-3.210;2023-04-12T08:47:07;96291.07;;;2.46;100.00
45872;BME280;32333;55.844;-3.210;2023-04-12T08:49:35;96282.85;;;2.33;100.00
45872;BME280;32333;55.844;-3.210;2023-04-12T08:52:04;96283.53;;;2.10;100.00
45872;BME280;32333;55.844;-3.210;2023-04-12T08:54:34;96289.23;;;2.57;100.00
45872;BME280;32333;55.844;-3.210;2023-04-12T08:57:04;96282.49;;;3.37;100.00
45872;BME280;32333;55.844;-3.210;2023-04-12T08:59:34;96285.74;;;3.64;100.00
45872;BME280;32333;55.844;-3.210;2023-04-12T09:02:03;96279.95;;;4.21;100.00
45872;BME280;32333;55.844;-3.210;2023-04-12T09:04:31;96281.36;;;5.20;100.00
45872;BME280;32333;55.844;-3.210;2023-04-12T09:06:59;96275.19;;;5.70;100.00
45872;BME280;32333;55.844;-3.210;2023-04-12T09:09:43;96279.52;;;5.20;100.00
45872;BME280;32333;55.844;-3.210;2023-04-12T09:14:37;96284.72;;;3.67;100.00
45872;BME280;32333;55.844;-3.210;2023-04-12T09:17:04;96281.53;;;3.05;100.00
45872;BME280;32333;55.844;-3.210;2023-04-12T09:19:33;96281.62;;;2.60;100.00
45872;BME280;32333;55.844;-3.210;2023-04-12T09:22:03;96281.53;;;3.73;100.00
45872;BME280;32333;55.844;-3.210;2023-04-12T09:24:45;96278.99;;;3.92;100.00
45872;BME280;32333;55.844;-3.210;2023-04-12T09:27:12;96282.98;;;3.41;100.00
45872;BME280;32333;55.844;-3.210;2023-04-12T09:29:40;96290.70;;;3.37;100.00
45872;BME280;32333;55.844;-3.210;2023-04-12T09:32:08;96291.11;;;3.09;100.00
45872;BME280;32333;55.844;-3.210;2023-04-12T09:34:36;96289.93;;;3.49;100.00
45872;BME280;32333;55.844;-3.210;2023-04-12T09:37:12;96295.67;;;2.12;100.00
45872;BME280;32333;55.844;-3.210;2023-04-12T09:39:39;96291.71;;;2.26;100.00
45872;BME280;32333;55.844;-3.210;2023-04-12T09:44:36;96288.28;;;3.51;100.00
45872;BME280;32333;55.844;-3.210;2023-04-12T09:47:05;96269.64;;;4.44;100.00
45872;BME280;32333;55.844;-3.210;2023-04-12T09:49:36;96269.83;;;4.49;100.00
45872;BME280;32333;55.844;-3.210;2023-04-12T09:52:05;96257.12;;;4.33;100.00
45872;BME280;32333;55.844;-3.210;2023-04-12T09:54:37;96270.27;;;4.95;100.00
45872;BME280;32333;55.844;-3.210;2023-04-12T09:57:06;96258.91;;;5.60;100.00
45872;BME280;32333;55.844;-3.210;2023-04-12T09:59:37;96259.70;;;5.66;100.00
45872;BME280;32333;55.844;-3.210;2023-04-12T10:02:09;96249.42;;;4.37;100.00
45872;BME280;32333;55.844;-3.210;2023-04-12T10:04:38;96250.73;;;5.87;100.00
45872;BME280;32333;55.844;-3.210;2023-04-12T10:07:07;96244.49;;;7.09;100.00
45872;BME280;32333;55.844;-3.210;2023-04-12T10:09:38;96249.17;;;5.62;100.00
45872;BME280;32333;55.844;-3.210;2023-04-12T10:14:36;96236.80;;;6.11;100.00
45872;BME280;32333;55.844;-3.210;2023-04-12T10:17:04;96245.32;;;6.40;100.00
45872;BME280;32333;55.844;-3.210;2023-04-12T10:19:36;96237.62;;;6.91;100.00
45872;BME280;32333;55.844;-3.210;2023-04-12T10:22:05;96244.46;;;6.78;100.00
45872;BME280;32333;55.844;-3.210;2023-04-12T10:24:33;96246.77;;;7.44;100.00
45872;BME280;32333;55.844;-3.210;2023-04-12T10:27:02;96238.88;;;6.36;100.00
45872;BME280;32333;55.844;-3.210;2023-04-12T10:29:30;96252.45;;;8.22;100.00
45872;BME280;32333;55.844;-3.210;2023-04-12T10:32:17;96251.24;;;6.67;100.00
45872;BME280;32333;55.844;-3.210;2023-04-12T10:34:49;96245.23;;;6.64;100.00
45872;BME280;32333;55.844;-3.210;2023-04-12T10:37:18;96250.93;;;7.54;100.00
45872;BME280;32333;55.844;-3.210;2023-04-12T10:39:51;96243.81;;;8.21;100.00
45872;BME280;32333;55.844;-3.210;2023-04-12T10:44:36;96246.71;;;7.59;100.00
45872;BME280;32333;55.844;-3.210;2023-04-12T10:47:03;96248.18;;;7.34;100.00
45872;BME280;32333;55.844;-3.210;2023-04-12T10:49:30;96244.41;;;8.28;100.00
45872;BME280;32333;55.844;-3.210;2023-04-12T10:52:14;96252.90;;;8.16;100.00
45872;BME280;32333;55.844;-3.210;2023-04-12T10:54:43;96252.66;;;6.38;100.00
45872;BME280;32333;55.844;-3.210;2023-04-12T10:57:43;96251.19;;;6.80;100.00
45872;BME280;32333;55.844;-3.210;2023-04-12T11:00:13;96252.75;;;6.49;100.00
45872;BME280;32333;55.844;-3.210;2023-04-12T11:03:13;96258.23;;;6.75;100.00
45872;BME280;32333;55.844;-3.210;2023-04-12T11:05:58;96250.34;;;8.20;100.00
45872;BME280;32333;55.844;-3.210;2023-04-12T11:08:27;96256.50;;;8.61;93.64
45872;BME280;32333;55.844;-3.210;2023-04-12T11:11:00;96262.49;;;7.83;89.49
45872;BME280;32333;55.844;-3.210;2023-04-12T11:14:37;96259.55;;;8.20;85.45
45872;BME280;32333;55.844;-3.210;2023-04-12T11:17:21;96261.97;;;7.11;97.89
45872;BME280;32333;55.844;-3.210;2023-04-12T11:19:53;96269.29;;;7.28;100.00
45872;BME280;32333;55.844;-3.210;2023-04-12T11:22:23;96264.88;;;6.87;100.00
45872;BME280;32333;55.844;-3.210;2023-04-12T11:24:54;96280.78;;;7.30;100.00
45872;BME280;32333;55.844;-3.210;2023-04-12T11:27:24;96280.11;;;6.46;100.00
45872;BME280;32333;55.844;-3.210;2023-04-12T11:29:54;96289.00;;;6.21;100.00
45872;BME280;32333;55.844;-3.210;2023-04-12T11:32:23;96292.98;;;6.07;100.00
45872;BME280;32333;55.844;-3.210;2023-04-12T11:34:53;96300.87;;;5.57;100.00
45872;BME280;32333;55.844;-3.210;2023-04-12T11:37:22;96309.17;;;4.91;100.00
45872;BME280;32333;55.844;-3.210;2023-04-12T11:39:52;96310.54;;;3.55;100.00
45872;BME280;32333;55.844;-3.210;2023-04-12T11:44:36;96306.38;;;4.28;100.00
45872;BME280;32333;55.844;-3.210;2023-04-12T11:47:12;96305.98;;;5.03;100.00
45872;BME280;32333;55.844;-3.210;2023-04-12T11:49:43;96304.16;;;5.78;100.00
45872;BME280;32333;55.844;-3.210;2023-04-12T11:52:10;96301.28;;;6.61;100.00
45872;BME280;32333;55.844;-3.210;2023-04-12T11:54:41;96305.39;;;7.31;100.00
45872;BME280;32333;55.844;-3.210;2023-04-12T11:57:11;96305.08;;;7.34;100.00
45872;BME280;32333;55.844;-3.210;2023-04-12T11:59:39;96301.49;;;5.38;100.00
45872;BME280;32333;55.844;-3.210;2023-04-12T12:02:09;96309.93;;;5.62;100.00
45872;BME280;32333;55.844;-3.210;2023-04-12T12:04:36;96311.26;;;5.74;100.00
45872;BME280;32333;55.844;-3.210;2023-04-12T12:07:04;96304.97;;;6.60;100.00
45872;BME280;32333;55.844;-3.210;2023-04-12T12:09:34;96313.96;;;6.46;100.00
45872;BME280;32333;55.844;-3.210;2023-04-12T12:14:36;96316.32;;;5.54;100.00
45872;BME280;32333;55.844;-3.210;2023-04-12T12:17:09;96311.53;;;5.17;100.00
45872;BME280;32333;55.844;-3.210;2023-04-12T12:19:39;96312.43;;;5.23;100.00
45872;BME280;32333;55.844;-3.210;2023-04-12T12:22:10;96315.57;;;6.29;100.00
45872;BME280;32333;55.844;-3.210;2023-04-12T12:24:38;96312.41;;;5.91;100.00
45872;BME280;32333;55.844;-3.210;2023-04-12T12:27:06;96307.46;;;6.96;100.00
45872;BME280;32333;55.844;-3.210;2023-04-12T12:29:34;96313.73;;;6.86;100.00
45872;BME280;32333;55.844;-3.210;2023-04-12T12:32:08;96311.54;;;6.28;100.00
45872;BME280;32333;55.844;-3.210;2023-04-12T12:34:36;96319.92;;;6.96;100.00
45872;BME280;32333;55.844;-3.210;2023-04-12T12:37:11;96322.36;;;6.04;100.00
45872;BME280;32333;55.844;-3.210;2023-04-12T12:39:39;96313.15;;;7.06;100.00
45872;BME280;32333;55.844;-3.210;2023-04-12T12:44:36;96322.67;;;6.65;100.00
45872;BME280;32333;55.844;-3.210;2023-04-12T12:47:04;96321.73;;;6.10;100.00
45872;BME280;32333;55.844;-3.210;2023-04-12T12:49:31;96318.94;;;6.83;100.00
45872;BME280;32333;55.844;-3.210;2023-04-12T12:52:03;96318.28;;;6.59;100.00
45872;BME280;32333;55.844;-3.210;2023-04-12T12:54:30;96317.65;;;7.45;100.00
45872;BME280;32333;55.844;-3.210;2023-04-12T12:56:58;96309.26;;;6.94;100.00
45872;BME280;32333;55.844;-3.210;2023-04-12T12:59:26;96319.15;;;6.81;100.00
45872;BME280;32333;55.844;-3.210;2023-04-12T13:01:53;96305.30;;;7.19;92.52
45872;BME280;32333;55.844;-3.210;2023-04-12T13:04:20;96315.34;;;6.27;100.00
45872;BME280;32333;55.844;-3.210;2023-04-12T13:06:48;96311.16;;;6.97;100.00
45872;BME280;32333;55.844;-3.210;2023-04-12T13:09:15;96317.24;;;7.10;99.39
45872;BME280;32333;55.844;-3.210;2023-04-12T13:11:44;96311.49;;;6.74;94.85
45872;BME280;32333;55.844;-3.210;2023-04-12T13:14:35;96312.17;;;6.20;100.00
45872;BME280;32333;55.844;-3.210;2023-04-12T13:17:03;96314.73;;;6.60;100.00
45872;BME280;32333;55.844;-3.210;2023-04-12T13:19:30;96313.19;;;6.31;100.00
45872;BME280;32333;55.844;-3.210;2023-04-12T13:21:59;96319.53;;;6.24;100.00
45872;BME280;32333;55.844;-3.210;2023-04-12T13:24:27;96311.31;;;6.16;100.00
45872;BME280;32333;55.844;-3.210;2023-04-12T13:26:54;96319.28;;;6.02;100.00